createdAt,value
2023-03-27T00:01:36.316Z,8.43
2023-03-27T00:04:04.169Z,8.44
2023-03-27T00:06:34.629Z,8.45
2023-03-27T00:09:03.990Z,8.47
2023-03-27T00:11:32.026Z,8.50
2023-03-27T00:14:00.815Z,8.53
2023-03-27T00:16:28.798Z,8.55
2023-03-27T00:18:56.751Z,8.57
2023-03-27T00:21:26.180Z,8.59
2023-03-27T00:23:54.764Z,8.60
2023-03-27T00:26:22.801Z,8.61
2023-03-27T00:28:50.804Z,8.62
2023-03-27T00:31:18.977Z,8.64
2023-03-27T00:33:46.914Z,8.65
2023-03-27T00:36:15.435Z,8.65
2023-03-27T00:38:43.922Z,8.66
2023-03-27T00:41:12.882Z,8.69
2023-03-27T00:43:44.895Z,8.73
2023-03-27T00:46:16.112Z,8.81
2023-03-27T00:48:48.303Z,8.89
2023-03-27T00:51:16.807Z,8.98
2023-03-27T00:53:45.683Z,9.06
2023-03-27T00:56:19.220Z,9.14
2023-03-27T00:58:48.874Z,9.21
2023-03-27T01:01:19.164Z,9.26
2023-03-27T01:03:47.818Z,9.32
2023-03-27T01:06:17.237Z,9.39
2023-03-27T01:08:46.054Z,9.45
2023-03-27T01:11:29.302Z,9.52
2023-03-27T01:14:03.476Z,9.56
2023-03-27T01:16:34.558Z,9.49
2023-03-27T01:19:21.787Z,9.38
2023-03-27T01:21:55.950Z,9.25
2023-03-27T01:24:33.232Z,9.20
2023-03-27T01:27:07.708Z,9.17
2023-03-27T01:29:35.937Z,9.13
2023-03-27T01:32:25.171Z,9.11
2023-03-27T01:35:06.334Z,9.09
2023-03-27T01:37:41.348Z,9.10
2023-03-27T01:40:18.868Z,9.10
2023-03-27T01:42:49.622Z,9.14
2023-03-27T01:45:20.053Z,9.17
2023-03-27T01:48:08.355Z,9.19
2023-03-27T01:50:42.578Z,9.18
2023-03-27T01:53:20.636Z,9.15
2023-03-27T01:55:54.385Z,9.12
2023-03-27T01:58:28.361Z,9.10
2023-03-27T02:01:00.629Z,9.10
2023-03-27T02:03:35.444Z,9.11
2023-03-27T02:06:08.772Z,9.12
2023-03-27T02:08:50.472Z,9.13
2023-03-27T02:11:22.938Z,9.16
2023-03-27T02:13:54.474Z,9.16
2023-03-27T02:16:25.018Z,9.14
2023-03-27T02:18:58.162Z,9.09
2023-03-27T02:21:26.893Z,9.03
2023-03-27T02:23:56.812Z,8.94
2023-03-27T02:26:25.348Z,8.85
2023-03-27T02:29:10.297Z,8.76
2023-03-27T02:31:47.725Z,8.67
2023-03-27T02:34:45.103Z,8.61
2023-03-27T02:37:17.666Z,8.56
2023-03-27T02:40:26.747Z,8.52
2023-03-27T02:43:17.405Z,8.47
2023-03-27T02:45:54.729Z,8.44
2023-03-27T02:48:39.626Z,8.41
2023-03-27T02:51:26.373Z,8.39
2023-03-27T02:53:59.578Z,8.37
2023-03-27T02:56:32.224Z,8.35
2023-03-27T02:59:08.936Z,8.34
2023-03-27T03:01:40.450Z,8.31
2023-03-27T03:04:25.045Z,8.24
2023-03-27T03:07:06.646Z,8.13
2023-03-27T03:09:40.377Z,8.06
2023-03-27T03:12:09.371Z,8.00
2023-03-27T03:14:45.473Z,7.94
2023-03-27T03:17:14.728Z,7.86
2023-03-27T03:19:42.712Z,7.77
2023-03-27T03:22:11.497Z,7.72
2023-03-27T03:24:42.447Z,7.67
2023-03-27T03:27:14.462Z,7.62
2023-03-27T03:29:52.590Z,7.59
2023-03-27T03:32:22.392Z,7.57
2023-03-27T03:34:52.564Z,7.54
2023-03-27T03:37:20.658Z,7.53
2023-03-27T03:39:48.527Z,7.54
2023-03-27T03:42:22.250Z,7.53
2023-03-27T03:44:52.656Z,7.51
2023-03-27T03:47:22.396Z,7.49
2023-03-27T03:49:50.584Z,7.47
2023-03-27T03:52:18.713Z,7.47
2023-03-27T03:54:47.030Z,7.48
2023-03-27T03:57:15.382Z,7.53
2023-03-27T03:59:48.049Z,7.57
2023-03-27T04:02:41.383Z,7.64
2023-03-27T04:05:12.242Z,7.72
2023-03-27T04:07:41.158Z,7.80
2023-03-27T04:10:27.922Z,7.86
2023-03-27T04:12:58.667Z,7.89
2023-03-27T04:15:49.743Z,7.92
2023-03-27T04:18:32.791Z,7.94
2023-03-27T04:21:03.134Z,7.94
2023-03-27T04:23:31.641Z,7.95
2023-03-27T04:26:01.218Z,7.97
2023-03-27T04:28:51.752Z,7.99
2023-03-27T04:31:46.724Z,8.02
2023-03-27T04:34:38.682Z,8.04
2023-03-27T04:37:31.996Z,8.08
2023-03-27T04:40:14.237Z,8.10
2023-03-27T04:42:44.255Z,8.15
2023-03-27T04:45:14.275Z,8.19
2023-03-27T04:47:43.108Z,8.23
2023-03-27T04:50:11.892Z,8.27
2023-03-27T04:52:40.127Z,8.31
2023-03-27T04:55:09.113Z,8.36
2023-03-27T04:57:37.812Z,8.40
2023-03-27T05:00:16.412Z,8.43
2023-03-27T05:02:47.991Z,8.49
2023-03-27T05:05:28.138Z,8.55
2023-03-27T05:07:56.493Z,8.60
2023-03-27T05:10:25.760Z,8.65
2023-03-27T05:12:56.416Z,8.69
2023-03-27T05:15:26.203Z,8.73
2023-03-27T05:17:56.057Z,8.79
2023-03-27T05:20:26.477Z,8.83
2023-03-27T05:22:55.108Z,8.88
2023-03-27T05:25:30.971Z,8.92
2023-03-27T05:28:00.955Z,8.96
2023-03-27T05:30:33.039Z,8.97
2023-03-27T05:33:27.090Z,8.98
2023-03-27T05:35:57.587Z,8.98
2023-03-27T05:38:27.335Z,8.97
2023-03-27T05:41:25.095Z,8.95
2023-03-27T05:43:53.567Z,8.95
2023-03-27T05:46:22.517Z,8.96
2023-03-27T05:49:02.632Z,8.98
2023-03-27T05:51:31.822Z,9.02
2023-03-27T05:53:59.974Z,9.07
2023-03-27T05:56:37.474Z,9.12
2023-03-27T05:59:07.126Z,9.16
2023-03-27T06:01:36.601Z,9.19
2023-03-27T06:04:04.772Z,9.22
2023-03-27T06:06:55.765Z,9.24
2023-03-27T06:09:23.721Z,9.27
2023-03-27T06:12:11.547Z,9.32
2023-03-27T06:14:39.940Z,9.36
2023-03-27T06:17:33.991Z,9.41
2023-03-27T06:20:12.043Z,9.44
2023-03-27T06:22:45.725Z,9.45
2023-03-27T06:25:14.933Z,9.48
2023-03-27T06:27:43.534Z,9.49
2023-03-27T06:30:13.296Z,9.51
2023-03-27T06:32:45.217Z,9.53
2023-03-27T06:35:14.939Z,9.57
2023-03-27T06:37:53.809Z,9.63
2023-03-27T06:40:24.392Z,9.70
2023-03-27T06:42:58.574Z,9.79
2023-03-27T06:45:34.560Z,9.87
2023-03-27T06:48:21.941Z,9.96
2023-03-27T06:50:53.528Z,10.07
2023-03-27T06:55:54.458Z,10.31
2023-03-27T06:58:23.605Z,10.40
2023-03-27T07:00:51.605Z,10.46
2023-03-27T07:03:21.490Z,10.47
2023-03-27T07:06:19.502Z,10.43
2023-03-27T07:08:56.344Z,10.38
2023-03-27T07:11:32.017Z,10.35
2023-03-27T07:14:04.008Z,10.36
2023-03-27T07:16:32.537Z,10.36
2023-03-27T07:19:02.581Z,10.38
2023-03-27T07:21:32.164Z,10.39
2023-03-27T07:24:00.880Z,10.42
2023-03-27T07:26:34.166Z,10.45
2023-03-27T07:29:13.279Z,10.49
2023-03-27T07:31:55.316Z,10.54
2023-03-27T07:34:42.463Z,10.60
2023-03-27T07:37:33.613Z,10.58
2023-03-27T07:40:26.611Z,10.61
2023-03-27T07:43:20.047Z,10.74
2023-03-27T07:45:49.488Z,10.92
2023-03-27T07:48:19.062Z,11.15
2023-03-27T07:50:48.079Z,11.39
2023-03-27T07:53:33.828Z,11.64
2023-03-27T07:56:11.032Z,11.91
2023-03-27T07:58:40.132Z,12.05
2023-03-27T08:01:08.833Z,12.08
2023-03-27T08:03:39.002Z,12.08
2023-03-27T08:06:07.695Z,12.08
2023-03-27T08:08:35.867Z,12.07
2023-03-27T08:11:06.233Z,12.12
2023-03-27T08:13:40.125Z,12.19
2023-03-27T08:16:10.661Z,12.25
2023-03-27T08:18:39.267Z,12.29
2023-03-27T08:21:09.399Z,12.31
2023-03-27T08:23:39.571Z,12.32
2023-03-27T08:26:53.713Z,12.33
2023-03-27T08:29:22.011Z,12.35
2023-03-27T08:31:50.492Z,12.34
2023-03-27T08:34:18.446Z,12.29
2023-03-27T08:36:50.153Z,12.19
2023-03-27T08:39:24.623Z,12.06
2023-03-27T08:42:04.870Z,11.95
2023-03-27T08:44:38.654Z,11.81
2023-03-27T08:47:11.982Z,11.70
2023-03-27T08:49:49.446Z,11.61
2023-03-27T08:52:25.449Z,11.54
2023-03-27T08:54:59.462Z,11.49
2023-03-27T08:57:39.708Z,11.44
2023-03-27T09:00:19.480Z,11.38
2023-03-27T09:02:48.702Z,11.34
2023-03-27T09:05:19.810Z,11.30
2023-03-27T09:08:10.482Z,11.30
2023-03-27T09:10:44.601Z,11.31
2023-03-27T09:13:45.899Z,11.33
2023-03-27T09:16:24.353Z,11.35
2023-03-27T09:19:15.785Z,11.36
2023-03-27T09:21:50.530Z,11.34
2023-03-27T09:24:33.226Z,11.30
2023-03-27T09:27:29.455Z,11.29
2023-03-27T09:30:11.218Z,11.27
2023-03-27T09:32:48.738Z,11.27
2023-03-27T09:35:19.203Z,11.26
2023-03-27T09:37:50.611Z,11.24
2023-03-27T09:40:21.742Z,11.24
2023-03-27T09:42:53.339Z,11.26
2023-03-27T09:45:22.004Z,11.30
2023-03-27T09:48:12.182Z,11.33
2023-03-27T09:50:47.304Z,11.35
2023-03-27T09:53:57.830Z,11.40
2023-03-27T09:56:31.807Z,11.50
2023-03-27T09:59:00.867Z,11.58
2023-03-27T10:01:34.645Z,11.64
2023-03-27T10:04:15.625Z,11.69
2023-03-27T10:06:48.845Z,11.72
2023-03-27T10:09:36.712Z,11.74
2023-03-27T10:12:10.437Z,11.79
2023-03-27T10:14:51.841Z,11.85
2023-03-27T10:17:52.457Z,11.90
2023-03-27T10:20:39.764Z,11.92
2023-03-27T10:23:55.470Z,11.87
2023-03-27T10:27:19.804Z,11.79
2023-03-27T10:30:53.856Z,11.72
2023-03-27T10:33:36.963Z,11.68
2023-03-27T10:36:34.522Z,11.69
2023-03-27T10:39:09.917Z,11.72
2023-03-27T10:41:47.770Z,11.80
2023-03-27T10:44:21.550Z,11.93
2023-03-27T10:46:53.751Z,12.09
2023-03-27T10:49:28.843Z,12.22
2023-03-27T10:52:03.106Z,12.36
2023-03-27T10:54:54.755Z,12.52
2023-03-27T10:57:29.195Z,12.63
2023-03-27T11:00:03.363Z,12.68
2023-03-27T11:02:54.305Z,12.72
2023-03-27T11:05:43.342Z,12.76
2023-03-27T11:08:51.449Z,12.77
2023-03-27T11:11:29.440Z,12.79
2023-03-27T11:14:05.382Z,12.80
2023-03-27T11:16:44.488Z,12.79
2023-03-27T11:19:35.147Z,12.79
2023-03-27T11:22:26.316Z,12.81
2023-03-27T11:24:57.116Z,12.77
2023-03-27T11:27:30.916Z,12.63
2023-03-27T11:30:20.278Z,12.44
2023-03-27T11:33:15.442Z,12.29
2023-03-27T11:35:51.717Z,12.16
2023-03-27T11:38:59.458Z,12.05
2023-03-27T11:41:27.489Z,11.98
2023-03-27T11:43:55.555Z,11.95
2023-03-27T11:46:53.099Z,11.96
2023-03-27T11:49:30.852Z,12.00
2023-03-27T11:52:02.134Z,11.99
2023-03-27T11:54:30.218Z,11.93
2023-03-27T11:57:06.298Z,11.93
2023-03-27T12:00:16.502Z,11.97
2023-03-27T12:02:55.089Z,11.95
2023-03-27T12:05:43.358Z,11.87
2023-03-27T12:08:12.518Z,11.74
2023-03-27T12:10:46.802Z,11.67
2023-03-27T12:14:01.509Z,11.72
2023-03-27T12:17:00.404Z,11.86
2023-03-27T12:19:55.093Z,11.94
2023-03-27T12:22:32.701Z,11.93
2023-03-27T12:25:15.692Z,11.87
2023-03-27T12:28:43.351Z,11.84
2023-03-27T12:31:32.635Z,11.97
2023-03-27T12:34:26.597Z,12.10
2023-03-27T12:36:55.648Z,12.15
2023-03-27T12:39:34.510Z,12.16
2023-03-27T12:42:14.960Z,12.18
2023-03-27T12:45:05.777Z,12.18
2023-03-27T12:47:44.533Z,12.25
2023-03-27T12:50:27.648Z,12.18
2023-03-27T12:53:07.165Z,12.04
2023-03-27T12:55:53.824Z,11.96
2023-03-27T12:58:34.626Z,11.74
2023-03-27T13:01:32.198Z,11.60
2023-03-27T13:04:29.986Z,11.54
2023-03-27T13:07:34.974Z,11.47
2023-03-27T13:10:12.811Z,11.40
2023-03-27T13:12:58.891Z,11.31
2023-03-27T13:15:42.211Z,11.22
2023-03-27T13:18:27.296Z,11.16
2023-03-27T13:21:16.561Z,11.17
2023-03-27T13:23:56.110Z,11.23
2023-03-27T13:26:27.925Z,11.30
2023-03-27T13:28:57.132Z,11.39
2023-03-27T13:31:45.327Z,11.51
2023-03-27T13:34:42.370Z,11.64
2023-03-27T13:37:21.951Z,11.67
2023-03-27T13:40:16.997Z,11.65
2023-03-27T13:42:50.872Z,11.60
2023-03-27T13:45:24.417Z,11.59
2023-03-27T13:48:10.939Z,11.62
2023-03-27T13:50:58.050Z,11.69
2023-03-27T13:53:40.575Z,11.93
2023-03-27T13:56:57.161Z,12.38
2023-03-27T13:59:53.129Z,12.67
2023-03-27T14:02:35.188Z,12.69
2023-03-27T14:05:31.732Z,12.72
2023-03-27T14:08:13.681Z,12.65
2023-03-27T14:11:24.885Z,12.57
2023-03-27T14:13:56.262Z,12.37
2023-03-27T14:16:28.494Z,12.30
2023-03-27T14:19:25.337Z,12.21
2023-03-27T14:22:02.341Z,12.09
2023-03-27T14:24:38.682Z,12.02
2023-03-27T14:27:23.058Z,11.93
2023-03-27T14:30:24.294Z,11.82
2023-03-27T14:33:07.003Z,11.72
2023-03-27T14:35:44.407Z,11.59
2023-03-27T14:38:30.392Z,11.45
2023-03-27T14:41:00.158Z,11.40
2023-03-27T14:43:52.454Z,11.38
2023-03-27T14:46:23.033Z,11.31
2023-03-27T14:48:58.310Z,11.28
2023-03-27T14:51:37.489Z,11.24
2023-03-27T14:54:11.973Z,11.21
2023-03-27T14:56:57.422Z,11.20
2023-03-27T14:59:35.082Z,11.14
2023-03-27T15:02:12.665Z,11.08
2023-03-27T15:04:40.886Z,11.07
2023-03-27T15:07:21.373Z,11.06
2023-03-27T15:10:03.663Z,11.07
2023-03-27T15:13:09.159Z,11.14
2023-03-27T15:15:44.075Z,11.18
2023-03-27T15:18:19.312Z,11.26
2023-03-27T15:20:47.821Z,11.24
2023-03-27T15:23:23.122Z,11.19
2023-03-27T15:25:56.343Z,11.10
2023-03-27T15:28:34.113Z,11.09
2023-03-27T15:31:03.733Z,11.06
2023-03-27T15:33:38.036Z,10.97
2023-03-27T15:36:07.346Z,10.80
2023-03-27T15:38:36.224Z,10.60
2023-03-27T15:41:17.385Z,10.38
2023-03-27T15:43:45.660Z,10.16
2023-03-27T15:46:18.262Z,9.93
2023-03-27T15:48:56.462Z,9.64
2023-03-27T15:51:33.772Z,9.21
2023-03-27T15:54:22.152Z,8.87
2023-03-27T15:56:50.409Z,8.78
2023-03-27T15:59:22.820Z,8.74
2023-03-27T16:01:57.560Z,8.65
2023-03-27T16:04:48.104Z,8.60
2023-03-27T16:07:18.301Z,8.54
2023-03-27T16:09:56.754Z,8.44
2023-03-27T16:12:45.037Z,8.42
2023-03-27T16:15:32.716Z,8.44
2023-03-27T16:18:07.049Z,8.44
2023-03-27T16:20:39.300Z,8.31
2023-03-27T16:23:20.837Z,8.26
2023-03-27T16:25:51.375Z,8.14
2023-03-27T16:28:21.418Z,8.06
2023-03-27T16:30:50.131Z,8.03
2023-03-27T16:33:21.267Z,7.97
2023-03-27T16:38:45.975Z,7.82
2023-03-27T16:41:15.489Z,7.82
2023-03-27T16:43:48.969Z,7.83
2023-03-27T16:46:39.112Z,7.77
2023-03-27T16:49:40.575Z,7.69
2023-03-27T16:54:58.432Z,7.49
2023-03-27T16:57:26.830Z,7.33
2023-03-27T17:03:43.218Z,7.15
2023-03-27T17:06:15.439Z,7.16
2023-03-27T17:08:56.717Z,7.15
2023-03-27T17:11:31.924Z,7.13
2023-03-27T17:14:05.376Z,7.08
2023-03-27T17:17:18.441Z,7.06
2023-03-27T17:20:32.133Z,7.04
2023-03-27T17:23:06.740Z,7.01
2023-03-27T17:26:30.536Z,7.02
2023-03-27T17:29:19.714Z,7.03
2023-03-27T17:35:22.572Z,7.03
2023-03-27T17:41:25.150Z,6.83
2023-03-27T17:44:16.371Z,6.71
2023-03-27T17:46:57.595Z,6.60
2023-03-27T17:49:25.758Z,6.47
2023-03-27T17:52:21.501Z,6.34
2023-03-27T17:55:43.156Z,6.12
2023-03-27T17:58:35.241Z,5.83
2023-03-27T18:01:49.680Z,5.43
2023-03-27T18:04:33.286Z,4.53
2023-03-27T18:07:05.516Z,3.84
2023-03-27T18:09:39.909Z,3.28
2023-03-27T18:12:13.873Z,2.96
2023-03-27T18:14:47.398Z,2.75
2023-03-27T18:17:22.953Z,2.66
2023-03-27T18:19:53.596Z,2.65
2023-03-27T18:22:21.758Z,2.57
2023-03-27T18:24:54.509Z,2.45
2023-03-27T18:27:47.024Z,2.35
2023-03-27T18:30:25.947Z,2.13
2023-03-27T18:33:09.677Z,2.03
2023-03-27T18:35:46.570Z,1.96
2023-03-27T18:38:21.696Z,1.89
2023-03-27T18:41:28.310Z,1.81
2023-03-27T18:43:58.770Z,1.74
2023-03-27T18:49:23.765Z,1.64
2023-03-27T18:52:04.593Z,1.61
2023-03-27T18:54:40.901Z,1.53
2023-03-27T18:57:34.787Z,1.46
2023-03-27T19:00:32.965Z,1.43
2023-03-27T19:03:18.266Z,1.43
2023-03-27T19:06:09.258Z,1.44
2023-03-27T19:09:34.480Z,1.41
2023-03-27T19:13:07.831Z,1.38
2023-03-27T19:16:26.852Z,1.33
2023-03-27T19:19:41.707Z,1.29
2023-03-27T19:22:45.989Z,1.25
2023-03-27T19:25:49.842Z,1.24
2023-03-27T19:28:20.178Z,1.23
2023-03-27T19:30:51.764Z,1.19
2023-03-27T19:33:28.564Z,1.18
2023-03-27T19:36:06.734Z,1.18
2023-03-27T19:38:47.867Z,1.16
2023-03-27T19:41:25.033Z,1.15
2023-03-27T19:56:19.912Z,1.03
2023-03-27T19:58:51.923Z,1.05
2023-03-27T20:01:31.826Z,0.99
2023-03-27T20:04:11.559Z,0.96
2023-03-27T20:07:02.408Z,0.94
2023-03-27T20:10:08.332Z,0.93
2023-03-27T20:12:46.960Z,0.93
2023-03-27T20:15:38.029Z,0.93
2023-03-27T20:18:35.639Z,0.94
2023-03-27T20:21:26.197Z,0.93
2023-03-27T20:24:16.392Z,0.94
2023-03-27T20:27:17.795Z,0.94
2023-03-27T20:29:49.868Z,0.91
2023-03-27T20:32:36.639Z,0.85
2023-03-27T20:35:20.680Z,0.75
2023-03-27T20:38:05.683Z,0.62
2023-03-27T20:43:25.213Z,0.44
2023-03-27T20:46:25.095Z,0.31
2023-03-27T20:48:55.606Z,0.22
2023-03-27T20:51:49.260Z,0.11
2023-03-27T20:54:42.682Z,0.03
2023-03-27T20:57:18.354Z,-0.07
2023-03-27T20:59:50.176Z,-0.14
2023-03-27T21:02:26.482Z,-0.20
2023-03-27T21:05:09.148Z,-0.23
2023-03-27T21:07:41.431Z,-0.28
2023-03-27T21:10:20.673Z,-0.32
2023-03-27T21:12:52.398Z,-0.35
2023-03-27T21:16:07.173Z,-0.38
2023-03-27T21:18:33.574Z,-0.43
2023-03-27T21:21:12.283Z,-0.47
2023-03-27T21:23:46.499Z,-0.50
2023-03-27T21:26:15.601Z,-0.52
2023-03-27T21:28:44.275Z,-0.55
2023-03-27T21:31:23.604Z,-0.55
2023-03-27T21:33:56.521Z,-0.55
2023-03-27T21:36:34.892Z,-0.55
2023-03-27T21:39:05.756Z,-0.56
2023-03-27T21:41:37.259Z,-0.58
2023-03-27T21:44:07.798Z,-0.61
2023-03-27T21:46:49.966Z,-0.63
2023-03-27T21:49:32.970Z,-0.64
2023-03-27T21:52:01.317Z,-0.66
2023-03-27T21:54:43.545Z,-0.65
2023-03-27T21:57:39.063Z,-0.66
2023-03-27T22:00:22.624Z,-0.69
2023-03-27T22:02:56.523Z,-0.70
2023-03-27T22:05:27.750Z,-0.70
2023-03-27T22:07:58.411Z,-0.70
2023-03-27T22:10:32.773Z,-0.70
2023-03-27T22:13:05.081Z,-0.70
2023-03-27T22:15:54.223Z,-0.71
2023-03-27T22:18:24.667Z,-0.71
2023-03-27T22:20:56.584Z,-0.71
2023-03-27T22:26:32.522Z,-0.73
2023-03-27T22:29:12.422Z,-0.72
2023-03-27T22:31:55.814Z,-0.72
2023-03-27T22:34:32.139Z,-0.71
2023-03-27T22:37:13.683Z,-0.71
2023-03-27T22:39:44.175Z,-0.70
2023-03-27T22:42:16.117Z,-0.69
2023-03-27T22:44:46.998Z,-0.70
2023-03-27T22:47:19.024Z,-0.69
2023-03-27T22:49:47.384Z,-0.69
2023-03-27T22:52:27.019Z,-0.68
2023-03-27T22:55:01.332Z,-0.68
2023-03-27T22:57:35.851Z,-0.66
2023-03-27T23:00:13.044Z,-0.65
2023-03-27T23:02:43.798Z,-0.65
2023-03-27T23:05:15.422Z,-0.66
2023-03-27T23:08:06.560Z,-0.64
2023-03-27T23:10:54.266Z,-0.64
2023-03-27T23:13:40.056Z,-0.64
2023-03-27T23:16:25.082Z,-0.64
2023-03-27T23:19:10.278Z,-0.65
2023-03-27T23:21:50.288Z,-0.64
2023-03-27T23:24:33.264Z,-0.64
2023-03-27T23:30:01.481Z,-0.64
2023-03-27T23:32:37.269Z,-0.62
2023-03-27T23:35:14.390Z,-0.61
2023-03-27T23:37:56.163Z,-0.60
2023-03-27T23:40:27.636Z,-0.58
2023-03-27T23:43:01.385Z,-0.57
2023-03-27T23:45:31.695Z,-0.58
2023-03-27T23:48:01.010Z,-0.57
2023-03-27T23:50:31.319Z,-0.58
2023-03-27T23:53:24.281Z,-0.55
2023-03-27T23:56:00.550Z,-0.53
2023-03-27T23:58:40.389Z,-0.52
